Time;durP1;ratioP1;P1;durP2;ratioP2;P2;SDS_P1;SDS_P2;PMS_P1;PMS_P2;Temp;Humidity;BMP_temperature;BMP_pressure;BME280_temperature;BME280_humidity;BME280_pressure;Samples;Min_cycle;Max_cycle;Signal;HPM_P1;HPM_P2
2019/12/25 00:01:57;;;;;;;2.02;1.69;;;;;;;19.74;44.08;100368.56;;;;-46
2019/12/25 00:04:58;;;;;;;2.23;1.63;;;;;;;19.72;44.13;100358.53;;;;-46
2019/12/25 00:07:57;;;;;;;2.22;1.57;;;;;;;19.71;44.07;100368.20;;;;-47
2019/12/25 00:10:58;;;;;;;1.58;1.40;;;;;;;19.70;44.12;100373.19;;;;-46
2019/12/25 00:13:58;;;;;;;1.55;1.40;;;;;;;19.69;44.10;100374.72;;;;-47
2019/12/25 00:17:12;;;;;;;2.20;1.50;;;;;;;19.68;44.11;100371.33;;;;-46
2019/12/25 00:19:58;;;;;;;2.12;1.53;;;;;;;19.66;44.15;100366.83;;;;-46
2019/12/25 00:22:58;;;;;;;2.19;1.59;;;;;;;19.66;44.17;100373.16;;;;-46
2019/12/25 00:26:09;;;;;;;2.63;1.66;;;;;;;19.65;44.17;100374.55;;;;-46
2019/12/25 00:28:57;;;;;;;2.85;1.81;;;;;;;19.64;44.16;100371.32;;;;-46
2019/12/25 00:31:57;;;;;;;1.97;1.50;;;;;;;19.62;44.18;100367.39;;;;-49
2019/12/25 00:34:57;;;;;;;2.51;1.57;;;;;;;19.61;44.22;100359.07;;;;-51
2019/12/25 00:37:58;;;;;;;2.25;1.49;;;;;;;19.60;44.20;100354.06;;;;-51
2019/12/25 00:40:58;;;;;;;1.57;1.39;;;;;;;19.59;44.17;100355.97;;;;-49
2019/12/25 00:43:57;;;;;;;2.26;1.61;;;;;;;19.57;44.22;100359.06;;;;-46
2019/12/25 00:46:57;;;;;;;1.82;1.41;;;;;;;19.57;44.19;100357.62;;;;-47
2019/12/25 00:49:57;;;;;;;1.75;1.47;;;;;;;19.56;44.22;100356.01;;;;-49
2019/12/25 00:52:58;;;;;;;2.04;1.51;;;;;;;19.54;44.22;100350.39;;;;-52
2019/12/25 00:55:58;;;;;;;1.73;1.41;;;;;;;19.55;44.23;100356.97;;;;-52
2019/12/25 00:58:58;;;;;;;1.79;1.41;;;;;;;19.53;44.22;100354.94;;;;-47
2019/12/25 01:01:57;;;;;;;1.91;1.47;;;;;;;19.52;44.27;100353.49;;;;-59
2019/12/25 01:04:57;;;;;;;2.47;1.61;;;;;;;19.51;44.31;100351.88;;;;-59
2019/12/25 01:07:57;;;;;;;2.01;1.51;;;;;;;19.50;44.27;100346.48;;;;-49
2019/12/25 01:10:58;;;;;;;1.57;1.40;;;;;;;19.49;44.30;100346.43;;;;-49
2019/12/25 01:13:57;;;;;;;2.11;1.49;;;;;;;19.47;44.26;100352.78;;;;-52
2019/12/25 01:16:57;;;;;;;2.15;1.52;;;;;;;19.47;44.32;100356.63;;;;-52
2019/12/25 01:19:57;;;;;;;1.88;1.34;;;;;;;19.46;44.35;100354.58;;;;-52
2019/12/25 01:22:57;;;;;;;1.78;1.46;;;;;;;19.46;44.26;100361.45;;;;-52
2019/12/25 01:25:57;;;;;;;1.95;1.47;;;;;;;19.44;44.34;100358.28;;;;-52
2019/12/25 01:28:57;;;;;;;1.78;1.46;;;;;;;19.43;44.34;100366.95;;;;-52
2019/12/25 01:31:58;;;;;;;2.53;1.59;;;;;;;19.42;44.33;100370.58;;;;-52
2019/12/25 01:34:58;;;;;;;2.03;1.41;;;;;;;19.41;44.33;100368.66;;;;-46
2019/12/25 01:37:58;;;;;;;1.70;1.41;;;;;;;19.40;44.40;100372.30;;;;-47
2019/12/25 01:40:57;;;;;;;1.91;1.51;;;;;;;19.38;44.35;100362.14;;;;-47
2019/12/25 01:43:57;;;;;;;1.79;1.50;;;;;;;19.38;44.38;100359.32;;;;-46
2019/12/25 01:46:57;;;;;;;1.93;1.51;;;;;;;19.37;44.39;100369.80;;;;-47
2019/12/25 01:49:58;;;;;;;2.19;1.45;;;;;;;19.37;44.36;100374.69;;;;-46
2019/12/25 01:52:58;;;;;;;2.19;1.51;;;;;;;19.35;44.41;100371.02;;;;-46
2019/12/25 01:55:57;;;;;;;1.61;1.45;;;;;;;19.34;44.41;100373.69;;;;-47
2019/12/25 01:58:57;;;;;;;2.21;1.50;;;;;;;19.34;44.41;100370.80;;;;-46
2019/12/25 02:01:57;;;;;;;2.07;1.43;;;;;;;19.32;44.43;100373.44;;;;-59
2019/12/25 02:04:57;;;;;;;2.05;1.40;;;;;;;19.33;44.36;100374.70;;;;-60
2019/12/25 02:07:57;;;;;;;1.68;1.42;;;;;;;19.32;44.36;100378.02;;;;-52
2019/12/25 02:10:57;;;;;;;1.89;1.44;;;;;;;19.30;44.41;100377.77;;;;-59
2019/12/25 02:13:58;;;;;;;1.69;1.38;;;;;;;19.30;44.43;100378.03;;;;-52
2019/12/25 02:16:57;;;;;;;1.80;1.40;;;;;;;19.29;44.36;100375.48;;;;-59
2019/12/25 02:19:57;;;;;;;2.00;1.42;;;;;;;19.29;44.37;100376.95;;;;-52
2019/12/25 02:22:58;;;;;;;1.97;1.40;;;;;;;19.26;44.46;100382.11;;;;-50
2019/12/25 02:25:58;;;;;;;2.02;1.60;;;;;;;19.26;44.40;100389.24;;;;-59
2019/12/25 02:28:57;;;;;;;1.45;1.35;;;;;;;19.26;44.38;100390.58;;;;-50
2019/12/25 02:31:58;;;;;;;1.83;1.41;;;;;;;19.25;44.47;100395.96;;;;-50
2019/12/25 02:34:57;;;;;;;1.45;1.35;;;;;;;19.25;44.44;100394.55;;;;-52
2019/12/25 02:37:58;;;;;;;1.83;1.33;;;;;;;19.24;44.44;100392.16;;;;-59
2019/12/25 02:40:58;;;;;;;1.39;1.29;;;;;;;19.24;44.43;100390.89;;;;-52
2019/12/25 02:43:58;;;;;;;1.74;1.40;;;;;;;19.23;44.44;100389.95;;;;-50
2019/12/25 02:46:57;;;;;;;1.77;1.31;;;;;;;19.22;44.45;100393.58;;;;-49
2019/12/25 02:49:58;;;;;;;1.85;1.40;;;;;;;19.21;44.46;100396.63;;;;-47
2019/12/25 02:52:57;;;;;;;1.50;1.40;;;;;;;19.21;44.44;100395.78;;;;-59
2019/12/25 02:55:57;;;;;;;2.01;1.39;;;;;;;19.19;44.46;100393.62;;;;-59
2019/12/25 02:58:58;;;;;;;2.21;1.47;;;;;;;19.19;44.53;100393.18;;;;-49
2019/12/25 03:01:57;;;;;;;1.65;1.39;;;;;;;19.19;44.47;100395.52;;;;-50
2019/12/25 03:04:57;;;;;;;1.60;1.28;;;;;;;19.19;44.48;100394.85;;;;-52
2019/12/25 03:07:58;;;;;;;1.69;1.34;;;;;;;19.17;44.44;100395.38;;;;-49
2019/12/25 03:10:57;;;;;;;1.76;1.40;;;;;;;19.17;44.53;100398.11;;;;-49
2019/12/25 03:13:57;;;;;;;2.42;1.51;;;;;;;19.16;44.48;100388.73;;;;-52
2019/12/25 03:16:57;;;;;;;1.74;1.29;;;;;;;19.16;44.51;100395.95;;;;-52
2019/12/25 03:19:58;;;;;;;1.61;1.40;;;;;;;19.15;44.48;100401.54;;;;-59
2019/12/25 03:22:58;;;;;;;1.78;1.39;;;;;;;19.14;44.50;100395.06;;;;-49
2019/12/25 03:25:57;;;;;;;1.69;1.31;;;;;;;19.14;44.47;100397.75;;;;-52
2019/12/25 03:28:58;;;;;;;2.35;1.44;;;;;;;19.12;44.51;100399.80;;;;-58
2019/12/25 03:31:58;;;;;;;1.98;1.37;;;;;;;19.12;44.52;100396.34;;;;-47
2019/12/25 03:34:58;;;;;;;1.63;1.40;;;;;;;19.11;44.58;100392.22;;;;-47
2019/12/25 03:37:58;;;;;;;1.36;1.26;;;;;;;19.11;44.55;100395.73;;;;-59
2019/12/25 03:40:58;;;;;;;1.71;1.49;;;;;;;19.11;44.54;100396.41;;;;-59
2019/12/25 03:43:57;;;;;;;2.20;1.41;;;;;;;19.10;44.49;100397.03;;;;-46
2019/12/25 03:46:58;;;;;;;2.08;1.34;;;;;;;19.09;44.57;100398.72;;;;-46
2019/12/25 03:49:57;;;;;;;1.75;1.27;;;;;;;19.08;44.55;100404.14;;;;-59
2019/12/25 03:52:57;;;;;;;1.57;1.31;;;;;;;19.08;44.52;100401.45;;;;-59
2019/12/25 03:55:57;;;;;;;1.45;1.30;;;;;;;19.07;44.57;100403.93;;;;-59
2019/12/25 03:58:58;;;;;;;1.74;1.30;;;;;;;19.07;44.60;100406.09;;;;-52
2019/12/25 04:01:57;;;;;;;1.40;1.30;;;;;;;19.07;44.60;100406.77;;;;-59
2019/12/25 04:04:58;;;;;;;1.43;1.29;;;;;;;19.05;44.60;100404.57;;;;-49
2019/12/25 04:07:57;;;;;;;1.92;1.37;;;;;;;19.05;44.61;100401.22;;;;-49
2019/12/25 04:10:57;;;;;;;1.45;1.35;;;;;;;19.05;44.63;100400.98;;;;-58
2019/12/25 04:13:57;;;;;;;1.77;1.31;;;;;;;19.05;44.60;100396.47;;;;-59
2019/12/25 04:16:58;;;;;;;1.50;1.40;;;;;;;19.05;44.58;100394.97;;;;-47
2019/12/25 04:19:58;;;;;;;1.61;1.31;;;;;;;19.07;44.60;100398.97;;;;-49
2019/12/25 04:22:57;;;;;;;1.40;1.30;;;;;;;19.08;44.50;100397.61;;;;-49
2019/12/25 04:25:57;;;;;;;1.31;1.21;;;;;;;19.09;44.57;100395.14;;;;-50
2019/12/25 04:28:57;;;;;;;1.27;1.17;;;;;;;19.10;44.55;100397.80;;;;-52
2019/12/25 04:31:57;;;;;;;1.47;1.37;;;;;;;19.12;44.56;100405.83;;;;-52
2019/12/25 04:34:57;;;;;;;1.42;1.32;;;;;;;19.15;44.56;100405.66;;;;-52
2019/12/25 04:37:57;;;;;;;1.42;1.28;;;;;;;19.17;44.53;100404.24;;;;-52
2019/12/25 04:40:57;;;;;;;1.40;1.30;;;;;;;19.20;44.57;100403.95;;;;-49
2019/12/25 04:43:58;;;;;;;1.65;1.27;;;;;;;19.22;44.60;100402.13;;;;-47
2019/12/25 04:46:57;;;;;;;1.40;1.28;;;;;;;19.26;44.59;100401.63;;;;-52
2019/12/25 04:49:57;;;;;;;1.39;1.19;;;;;;;19.30;44.58;100393.16;;;;-46
2019/12/25 04:52:57;;;;;;;1.43;1.20;;;;;;;19.32;44.58;100398.52;;;;-46
2019/12/25 04:55:58;;;;;;;1.47;1.33;;;;;;;19.35;44.61;100408.90;;;;-51
2019/12/25 04:58:58;;;;;;;5.21;1.17;;;;;;;19.39;44.54;100408.23;;;;-51
2019/12/25 05:01:57;;;;;;;1.83;1.23;;;;;;;19.43;44.62;100409.44;;;;-49
2019/12/25 05:04:57;;;;;;;1.45;1.33;;;;;;;19.46;44.75;100405.09;;;;-52
2019/12/25 05:07:57;;;;;;;1.95;1.21;;;;;;;19.49;44.77;100409.38;;;;-52
2019/12/25 05:10:57;;;;;;;1.32;1.18;;;;;;;19.52;44.79;100410.34;;;;-51
2019/12/25 05:13:58;;;;;;;1.59;1.34;;;;;;;19.55;44.73;100404.04;;;;-59
2019/12/25 05:16:57;;;;;;;1.33;1.20;;;;;;;19.57;44.72;100411.50;;;;-60
2019/12/25 05:19:57;;;;;;;2.55;1.21;;;;;;;19.61;44.82;100417.16;;;;-59
2019/12/25 05:22:58;;;;;;;1.40;1.21;;;;;;;19.63;44.80;100422.82;;;;-59
2019/12/25 05:25:58;;;;;;;1.23;1.14;;;;;;;19.66;44.79;100420.27;;;;-59
2019/12/25 05:28:57;;;;;;;1.40;1.30;;;;;;;19.70;44.83;100425.77;;;;-47
2019/12/25 05:31:58;;;;;;;1.27;1.17;;;;;;;19.72;44.83;100420.75;;;;-46
2019/12/25 05:34:57;;;;;;;1.57;1.30;;;;;;;19.74;44.82;100413.74;;;;-46
2019/12/25 05:37:57;;;;;;;1.28;1.18;;;;;;;19.77;44.81;100412.32;;;;-46
2019/12/25 05:40:57;;;;;;;1.30;1.20;;;;;;;19.79;44.77;100409.33;;;;-47
2019/12/25 05:43:57;;;;;;;1.17;1.07;;;;;;;19.81;44.75;100407.73;;;;-47
2019/12/25 05:46:57;;;;;;;1.23;1.13;;;;;;;19.83;44.80;100409.83;;;;-47
2019/12/25 05:49:57;;;;;;;1.33;1.19;;;;;;;19.84;44.74;100409.94;;;;-46
2019/12/25 05:52:57;;;;;;;1.26;1.16;;;;;;;19.85;44.69;100405.06;;;;-46
2019/12/25 05:55:57;;;;;;;1.33;1.21;;;;;;;19.87;44.73;100407.55;;;;-47
2019/12/25 05:58:58;;;;;;;1.29;1.13;;;;;;;19.87;44.68;100410.67;;;;-47
2019/12/25 06:01:57;;;;;;;2.27;1.11;;;;;;;19.90;44.71;100409.59;;;;-44
2019/12/25 06:04:57;;;;;;;10.14;1.62;;;;;;;19.90;44.63;100413.37;;;;-44
2019/12/25 06:07:57;;;;;;;3.70;1.47;;;;;;;19.90;44.43;100413.31;;;;-45
2019/12/25 06:10:58;;;;;;;4.90;1.59;;;;;;;19.92;44.52;100413.13;;;;-45
2019/12/25 06:13:57;;;;;;;3.65;1.81;;;;;;;19.93;44.46;100415.34;;;;-45
2019/12/25 06:16:57;;;;;;;4.63;1.66;;;;;;;19.96;44.51;100415.03;;;;-44
2019/12/25 06:19:58;;;;;;;3.90;1.65;;;;;;;19.97;44.69;100413.17;;;;-45
2019/12/25 06:22:57;;;;;;;3.53;1.50;;;;;;;19.98;44.25;100405.63;;;;-44
2019/12/25 06:25:57;;;;;;;3.21;1.39;;;;;;;20.02;44.68;100408.22;;;;-48
2019/12/25 06:28:57;;;;;;;2.67;1.37;;;;;;;20.02;44.16;100408.28;;;;-48
2019/12/25 06:31:57;;;;;;;2.54;1.33;;;;;;;20.02;44.18;100405.77;;;;-56
2019/12/25 06:34:58;;;;;;;2.01;1.31;;;;;;;20.03;44.17;100402.45;;;;-55
2019/12/25 06:37:57;;;;;;;2.84;1.38;;;;;;;20.04;44.26;100403.06;;;;-55
2019/12/25 06:40:58;;;;;;;2.41;1.40;;;;;;;20.05;44.11;100415.84;;;;-55
2019/12/25 06:43:57;;;;;;;3.51;1.40;;;;;;;20.05;44.20;100424.23;;;;-55
2019/12/25 06:46:57;;;;;;;1.92;1.34;;;;;;;20.07;44.13;100432.22;;;;-56
2019/12/25 06:49:57;;;;;;;2.24;1.29;;;;;;;20.08;44.15;100429.65;;;;-56
2019/12/25 06:52:57;;;;;;;2.05;1.32;;;;;;;20.09;44.23;100428.92;;;;-50
2019/12/25 06:55:57;;;;;;;3.30;1.31;;;;;;;20.09;44.14;100423.33;;;;-51
2019/12/25 06:58:58;;;;;;;1.35;1.19;;;;;;;20.11;44.08;100439.41;;;;-51
2019/12/25 07:01:57;;;;;;;1.50;1.18;;;;;;;20.11;44.06;100440.41;;;;-51
2019/12/25 07:04:57;;;;;;;2.41;1.34;;;;;;;20.12;44.06;100463.02;;;;-51
2019/12/25 07:07:57;;;;;;;1.79;1.27;;;;;;;20.13;44.01;100465.80;;;;-50
2019/12/25 07:10:57;;;;;;;1.72;1.30;;;;;;;20.14;44.04;100491.84;;;;-50
2019/12/25 07:13:57;;;;;;;2.69;1.40;;;;;;;20.16;44.04;100492.77;;;;-51
2019/12/25 07:16:58;;;;;;;2.80;1.27;;;;;;;20.16;44.01;100474.05;;;;-51
2019/12/25 07:19:57;;;;;;;2.25;1.26;;;;;;;20.16;44.01;100481.36;;;;-50
2019/12/25 07:22:58;;;;;;;1.75;1.27;;;;;;;20.17;44.01;100476.03;;;;-50
2019/12/25 07:25:57;;;;;;;1.33;1.20;;;;;;;20.18;43.99;100491.00;;;;-50
2019/12/25 07:28:57;;;;;;;2.31;1.30;;;;;;;20.18;44.03;100500.33;;;;-51
2019/12/25 07:31:57;;;;;;;2.34;1.26;;;;;;;20.19;43.97;100500.03;;;;-50
2019/12/25 07:34:58;;;;;;;2.43;1.32;;;;;;;20.20;44.00;100499.03;;;;-51
2019/12/25 07:37:58;;;;;;;1.97;1.30;;;;;;;20.21;43.96;100497.40;;;;-51
2019/12/25 07:40:57;;;;;;;1.55;1.24;;;;;;;20.22;43.98;100489.55;;;;-51
2019/12/25 07:43:57;;;;;;;1.42;1.13;;;;;;;20.22;43.97;100491.73;;;;-51
2019/12/25 07:46:57;;;;;;;1.73;1.32;;;;;;;20.23;43.90;100501.37;;;;-55
2019/12/25 07:49:57;;;;;;;2.31;1.17;;;;;;;20.24;43.92;100507.69;;;;-48
2019/12/25 07:52:58;;;;;;;1.60;1.22;;;;;;;20.26;43.91;100508.57;;;;-49
2019/12/25 07:55:57;;;;;;;1.42;1.08;;;;;;;20.26;43.98;100514.08;;;;-48
2019/12/25 07:58:57;;;;;;;1.41;1.22;;;;;;;20.26;43.96;100513.24;;;;-48
2019/12/25 08:01:57;;;;;;;1.26;1.16;;;;;;;20.27;43.95;100511.17;;;;-48
2019/12/25 08:04:57;;;;;;;1.57;1.23;;;;;;;20.27;43.92;100509.66;;;;-48
2019/12/25 08:07:58;;;;;;;1.71;1.27;;;;;;;20.26;43.96;100514.25;;;;-50
2019/12/25 08:10:57;;;;;;;1.31;1.18;;;;;;;20.27;43.90;100509.28;;;;-49
2019/12/25 08:13:57;;;;;;;1.24;1.14;;;;;;;20.28;43.89;100512.45;;;;-48
2019/12/25 08:16:57;;;;;;;1.31;1.19;;;;;;;20.28;43.92;100525.30;;;;-48
2019/12/25 08:19:57;;;;;;;1.59;1.20;;;;;;;20.29;43.88;100533.35;;;;-48
2019/12/25 08:22:57;;;;;;;1.34;1.23;;;;;;;20.29;43.87;100540.94;;;;-48
2019/12/25 08:25:57;;;;;;;1.62;1.17;;;;;;;20.30;43.87;100550.50;;;;-48
2019/12/25 08:28:57;;;;;;;1.15;1.06;;;;;;;20.30;43.86;100556.08;;;;-49
2019/12/25 08:31:57;;;;;;;1.13;1.00;;;;;;;20.31;43.85;100561.45;;;;-52
2019/12/25 08:34:57;;;;;;;1.54;1.10;;;;;;;20.31;43.88;100565.84;;;;-52
2019/12/25 08:37:57;;;;;;;2.16;1.20;;;;;;;20.31;43.85;100566.75;;;;-52
2019/12/25 08:40:57;;;;;;;1.30;1.20;;;;;;;20.31;43.87;100573.80;;;;-52
2019/12/25 08:43:57;;;;;;;1.23;1.10;;;;;;;20.31;43.84;100581.01;;;;-52
2019/12/25 08:46:58;;;;;;;1.10;1.00;;;;;;;20.33;43.84;100580.59;;;;-52
2019/12/25 08:49:57;;;;;;;1.19;1.09;;;;;;;20.33;43.78;100585.05;;;;-52
2019/12/25 08:52:57;;;;;;;1.10;1.00;;;;;;;20.33;43.80;100588.57;;;;-51
2019/12/25 08:55:57;;;;;;;1.59;1.15;;;;;;;20.33;43.77;100604.00;;;;-52
2019/12/25 08:58:57;;;;;;;1.17;1.07;;;;;;;20.33;43.78;100603.50;;;;-52
2019/12/25 09:01:58;;;;;;;1.27;1.06;;;;;;;20.32;43.80;100607.72;;;;-52
2019/12/25 09:04:57;;;;;;;1.21;1.11;;;;;;;20.33;43.79;100612.79;;;;-52
2019/12/25 09:07:57;;;;;;;1.11;1.00;;;;;;;20.32;43.79;100615.77;;;;-52
2019/12/25 09:10:57;;;;;;;1.20;1.10;;;;;;;20.32;43.73;100627.34;;;;-51
2019/12/25 09:14:01;;;;;;;1.29;1.19;;;;;;;20.32;43.80;100628.69;;;;-52
2019/12/25 09:16:57;;;;;;;1.33;1.10;;;;;;;20.33;43.81;100638.02;;;;-52
2019/12/25 09:19:57;;;;;;;1.20;1.10;;;;;;;20.33;43.77;100648.62;;;;-52
2019/12/25 09:22:57;;;;;;;1.19;1.09;;;;;;;20.32;43.77;100654.34;;;;-52
2019/12/25 09:25:57;;;;;;;1.00;0.99;;;;;;;20.34;43.77;100656.78;;;;-51
2019/12/25 09:28:57;;;;;;;1.20;1.10;;;;;;;20.33;43.80;100661.60;;;;-52
2019/12/25 09:31:57;;;;;;;1.19;1.09;;;;;;;20.33;43.79;100670.66;;;;-53
2019/12/25 09:34:57;;;;;;;1.11;1.01;;;;;;;20.33;43.75;100676.47;;;;-52
2019/12/25 09:37:57;;;;;;;0.93;0.91;;;;;;;20.33;43.76;100680.99;;;;-55
2019/12/25 09:40:57;;;;;;;1.15;1.05;;;;;;;20.33;43.78;100686.20;;;;-56
2019/12/25 09:43:57;;;;;;;1.01;0.97;;;;;;;20.33;43.75;100688.88;;;;-50
2019/12/25 09:46:57;;;;;;;1.01;1.00;;;;;;;20.34;43.72;100697.04;;;;-51
2019/12/25 09:49:57;;;;;;;1.39;1.00;;;;;;;20.34;43.75;100701.67;;;;-51
2019/12/25 09:52:58;;;;;;;1.03;0.99;;;;;;;20.34;43.75;100703.41;;;;-50
2019/12/25 09:55:57;;;;;;;1.11;1.01;;;;;;;20.34;43.71;100710.56;;;;-51
2019/12/25 09:58:57;;;;;;;1.20;1.10;;;;;;;20.34;43.75;100710.63;;;;-51
2019/12/25 10:01:58;;;;;;;1.33;1.18;;;;;;;20.34;43.73;100712.91;;;;-51
2019/12/25 10:04:57;;;;;;;1.33;1.20;;;;;;;20.34;43.71;100715.42;;;;-51
2019/12/25 10:07:57;;;;;;;1.20;1.10;;;;;;;20.34;43.68;100722.64;;;;-51
2019/12/25 10:10:58;;;;;;;1.24;1.14;;;;;;;20.33;43.70;100725.45;;;;-50
2019/12/25 10:13:57;;;;;;;1.75;1.19;;;;;;;20.33;43.81;100728.03;;;;-48
2019/12/25 10:16:57;;;;;;;1.33;1.23;;;;;;;20.33;43.86;100731.87;;;;-51
2019/12/25 10:19:57;;;;;;;1.47;1.37;;;;;;;20.32;43.67;100735.02;;;;-51
2019/12/25 10:22:57;;;;;;;1.64;1.37;;;;;;;20.32;43.74;100738.64;;;;-48
2019/12/25 10:25:57;;;;;;;1.42;1.32;;;;;;;20.32;43.50;100745.42;;;;-50
2019/12/25 10:28:57;;;;;;;1.59;1.49;;;;;;;20.33;43.75;100746.91;;;;-51
2019/12/25 10:31:57;;;;;;;3.11;1.39;;;;;;;20.34;43.75;100753.23;;;;-49
2019/12/25 10:34:57;;;;;;;8.44;1.43;;;;;;;20.37;43.84;100760.18;;;;-53
2019/12/25 10:37:58;;;;;;;2.69;1.50;;;;;;;20.36;43.62;100761.03;;;;-53
2019/12/25 10:40:57;;;;;;;1.55;1.29;;;;;;;20.35;43.65;100766.52;;;;-51
2019/12/25 10:43:57;;;;;;;2.87;1.44;;;;;;;20.38;43.98;100776.39;;;;-49
2019/12/25 10:46:57;;;;;;;2.97;1.51;;;;;;;20.40;44.47;100786.49;;;;-52
2019/12/25 10:49:57;;;;;;;2.67;1.31;;;;;;;20.43;44.50;100785.08;;;;-45
2019/12/25 10:52:57;;;;;;;2.15;1.21;;;;;;;20.43;44.39;100793.34;;;;-46
2019/12/25 10:55:57;;;;;;;2.47;1.34;;;;;;;20.46;44.58;100796.05;;;;-53
2019/12/25 10:58:57;;;;;;;2.95;1.50;;;;;;;20.48;44.59;100795.98;;;;-49
2019/12/25 11:01:57;;;;;;;1.60;1.39;;;;;;;20.48;44.68;100797.99;;;;-48
2019/12/25 11:04:57;;;;;;;2.83;1.35;;;;;;;20.50;44.60;100800.44;;;;-47
2019/12/25 11:07:57;;;;;;;3.00;1.38;;;;;;;20.53;44.65;100801.75;;;;-49
2019/12/25 11:10:58;;;;;;;2.31;1.30;;;;;;;20.56;44.56;100798.93;;;;-50
2019/12/25 11:13:57;;;;;;;2.27;1.25;;;;;;;20.56;44.23;100803.23;;;;-50
2019/12/25 11:16:57;;;;;;;1.77;1.29;;;;;;;20.56;44.10;100800.44;;;;-50
2019/12/25 11:19:57;;;;;;;2.90;1.29;;;;;;;20.56;44.04;100800.95;;;;-50
2019/12/25 11:22:57;;;;;;;1.93;1.20;;;;;;;20.57;43.91;100810.31;;;;-50
2019/12/25 11:25:57;;;;;;;2.33;1.31;;;;;;;20.55;43.92;100815.84;;;;-46
2019/12/25 11:28:57;;;;;;;2.44;1.41;;;;;;;20.56;43.89;100822.59;;;;-47
2019/12/25 11:31:57;;;;;;;2.37;1.30;;;;;;;20.55;43.74;100826.73;;;;-48
2019/12/25 11:34:58;;;;;;;1.94;1.39;;;;;;;20.56;44.23;100825.88;;;;-45
2019/12/25 11:37:57;;;;;;;4.36;1.50;;;;;;;20.61;44.50;100836.58;;;;-51
2019/12/25 11:40:57;;;;;;;5.35;1.37;;;;;;;20.63;44.41;100832.14;;;;-50
2019/12/25 11:43:57;;;;;;;2.87;1.32;;;;;;;20.64;44.36;100832.69;;;;-55
2019/12/25 11:46:58;;;;;;;2.93;1.30;;;;;;;20.63;44.13;100830.80;;;;-48
2019/12/25 11:49:57;;;;;;;1.48;1.20;;;;;;;20.63;44.31;100843.89;;;;-51
2019/12/25 11:52:57;;;;;;;3.80;1.18;;;;;;;20.65;44.03;100843.64;;;;-49
2019/12/25 11:55:57;;;;;;;1.38;1.20;;;;;;;20.66;43.98;100850.97;;;;-49
2019/12/25 11:58:57;;;;;;;1.72;1.18;;;;;;;20.65;43.93;100850.75;;;;-49
2019/12/25 12:01:57;;;;;;;1.20;1.10;;;;;;;20.64;43.86;100857.09;;;;-50
2019/12/25 12:04:57;;;;;;;1.63;1.21;;;;;;;20.64;43.82;100870.17;;;;-49
2019/12/25 12:07:58;;;;;;;1.76;1.25;;;;;;;20.63;43.77;100874.33;;;;-49
2019/12/25 12:10:57;;;;;;;1.70;1.13;;;;;;;20.62;43.80;100876.80;;;;-49
2019/12/25 12:13:57;;;;;;;1.35;1.21;;;;;;;20.61;43.74;100880.70;;;;-49
2019/12/25 12:16:57;;;;;;;1.88;1.09;;;;;;;20.61;43.71;100880.87;;;;-49
2019/12/25 12:19:57;;;;;;;1.87;1.17;;;;;;;20.61;43.66;100888.83;;;;-49
2019/12/25 12:22:57;;;;;;;1.61;1.17;;;;;;;20.60;43.60;100895.27;;;;-49
2019/12/25 12:25:57;;;;;;;1.40;1.20;;;;;;;20.59;43.61;100900.36;;;;-59
2019/12/25 12:28:57;;;;;;;1.70;1.06;;;;;;;20.59;43.56;100894.61;;;;-59
2019/12/25 12:31:58;;;;;;;1.36;1.21;;;;;;;20.58;43.57;100905.34;;;;-59
2019/12/25 12:34:57;;;;;;;1.20;1.10;;;;;;;20.58;43.60;100909.95;;;;-60
2019/12/25 12:37:58;;;;;;;2.58;1.10;;;;;;;20.57;43.57;100911.00;;;;-59
2019/12/25 12:40:57;;;;;;;1.13;1.03;;;;;;;20.57;43.52;100918.95;;;;-59
2019/12/25 12:43:57;;;;;;;1.57;1.08;;;;;;;20.57;43.51;100922.88;;;;-59
2019/12/25 12:46:57;;;;;;;1.37;1.11;;;;;;;20.56;43.51;100924.51;;;;-60
2019/12/25 12:49:57;;;;;;;1.21;1.11;;;;;;;20.55;43.52;100928.59;;;;-60
2019/12/25 12:52:57;;;;;;;1.30;1.20;;;;;;;20.53;43.54;100935.14;;;;-60
2019/12/25 12:55:57;;;;;;;1.20;1.10;;;;;;;20.53;43.52;100943.03;;;;-59
2019/12/25 12:58:57;;;;;;;1.34;1.24;;;;;;;20.54;43.45;100941.91;;;;-59
2019/12/25 13:01:57;;;;;;;1.28;1.18;;;;;;;20.53;43.48;100946.62;;;;-60
2019/12/25 13:04:58;;;;;;;1.20;1.10;;;;;;;20.53;43.43;100949.20;;;;-59
2019/12/25 13:07:57;;;;;;;2.41;1.20;;;;;;;20.52;43.50;100954.52;;;;-59
2019/12/25 13:10:57;;;;;;;1.26;1.11;;;;;;;20.52;43.47;100956.80;;;;-46
2019/12/25 13:13:57;;;;;;;1.11;1.09;;;;;;;20.52;43.50;100961.23;;;;-59
2019/12/25 13:16:57;;;;;;;1.51;1.29;;;;;;;20.51;43.41;100961.73;;;;-59
2019/12/25 13:19:57;;;;;;;1.20;1.10;;;;;;;20.53;43.42;100967.09;;;;-49
2019/12/25 13:22:57;;;;;;;1.59;1.10;;;;;;;20.52;43.43;100970.94;;;;-52
2019/12/25 13:25:57;;;;;;;1.11;1.01;;;;;;;20.52;43.40;100980.19;;;;-60
2019/12/25 13:28:57;;;;;;;1.26;1.16;;;;;;;20.52;43.40;100985.94;;;;-47
2019/12/25 13:31:57;;;;;;;1.19;1.03;;;;;;;20.52;43.44;100991.70;;;;-49
2019/12/25 13:34:57;;;;;;;1.21;1.11;;;;;;;20.52;43.43;101003.66;;;;-49
2019/12/25 13:37:57;;;;;;;1.68;1.09;;;;;;;20.52;43.48;101011.22;;;;-52
2019/12/25 13:40:58;;;;;;;1.46;1.05;;;;;;;20.57;43.30;101019.20;;;;-51
2019/12/25 13:43:57;;;;;;;2.13;1.17;;;;;;;20.55;43.71;101025.42;;;;-52
2019/12/25 13:46:57;;;;;;;1.55;1.20;;;;;;;20.57;43.60;101030.55;;;;-49
2019/12/25 13:49:58;;;;;;;1.62;1.21;;;;;;;20.58;43.46;101030.10;;;;-46
2019/12/25 13:52:57;;;;;;;2.19;1.18;;;;;;;20.60;43.44;101032.27;;;;-48
2019/12/25 13:55:58;;;;;;;2.97;1.20;;;;;;;20.60;43.42;101038.31;;;;-47
2019/12/25 13:58:58;;;;;;;2.11;1.21;;;;;;;20.61;43.36;101037.97;;;;-47
2019/12/25 14:01:58;;;;;;;1.29;1.18;;;;;;;20.62;43.37;101042.60;;;;-47
2019/12/25 14:04:57;;;;;;;1.61;1.21;;;;;;;20.62;43.38;101042.31;;;;-51
2019/12/25 14:07:57;;;;;;;1.25;1.15;;;;;;;20.62;43.37;101044.66;;;;-58
2019/12/25 14:10:57;;;;;;;2.06;1.27;;;;;;;20.62;43.34;101047.01;;;;-58
2019/12/25 14:13:57;;;;;;;1.36;1.17;;;;;;;20.61;43.35;101059.28;;;;-51
2019/12/25 14:16:57;;;;;;;1.70;1.17;;;;;;;20.62;43.34;101066.72;;;;-51
2019/12/25 14:19:57;;;;;;;1.48;1.20;;;;;;;20.63;43.33;101066.25;;;;-52
2019/12/25 14:22:57;;;;;;;1.21;1.06;;;;;;;20.63;43.32;101084.11;;;;-51
2019/12/25 14:25:57;;;;;;;1.25;0.99;;;;;;;20.61;43.36;101092.34;;;;-51
2019/12/25 14:28:57;;;;;;;5.03;1.35;;;;;;;20.60;43.38;101096.98;;;;-50
2019/12/25 14:31:57;;;;;;;3.99;1.70;;;;;;;20.61;43.00;101102.30;;;;-48
2019/12/25 14:34:57;;;;;;;2.57;1.37;;;;;;;20.63;43.24;101112.25;;;;-51
2019/12/25 14:37:57;;;;;;;2.17;1.41;;;;;;;20.63;43.24;101116.60;;;;-50
2019/12/25 14:41:06;;;;;;;1.80;1.37;;;;;;;20.62;43.23;101117.16;;;;-51
2019/12/25 14:43:57;;;;;;;5.66;1.39;;;;;;;20.64;43.19;101127.79;;;;-51
2019/12/25 14:46:57;;;;;;;3.12;1.37;;;;;;;20.63;43.18;101127.67;;;;-51
2019/12/25 14:49:57;;;;;;;5.73;1.59;;;;;;;20.62;43.29;101134.52;;;;-51
2019/12/25 14:52:58;;;;;;;2.89;1.36;;;;;;;20.65;43.44;101144.06;;;;-51
2019/12/25 14:55:57;;;;;;;3.37;1.40;;;;;;;20.63;43.39;101145.71;;;;-50
2019/12/25 14:58:57;;;;;;;1.55;1.29;;;;;;;20.63;43.30;101150.91;;;;-50
2019/12/25 15:01:58;;;;;;;1.73;1.25;;;;;;;20.62;43.31;101155.00;;;;-51
2019/12/25 15:04:57;;;;;;;1.37;1.27;;;;;;;20.62;43.27;101158.58;;;;-50
2019/12/25 15:07:57;;;;;;;3.92;1.40;;;;;;;20.62;43.54;101166.84;;;;-49
2019/12/25 15:10:57;;;;;;;1.30;1.20;;;;;;;20.62;43.26;101178.71;;;;-49
2019/12/25 15:13:57;;;;;;;1.97;1.29;;;;;;;20.63;43.24;101187.66;;;;-49
2019/12/25 15:16:57;;;;;;;1.87;1.38;;;;;;;20.62;43.25;101188.28;;;;-49
2019/12/25 15:19:57;;;;;;;2.27;1.30;;;;;;;20.61;43.22;101191.35;;;;-49
2019/12/25 15:22:57;;;;;;;1.93;1.25;;;;;;;20.61;43.26;101197.62;;;;-49
2019/12/25 15:25:57;;;;;;;1.98;1.30;;;;;;;20.59;43.41;101195.34;;;;-56
2019/12/25 15:28:57;;;;;;;1.53;1.39;;;;;;;20.60;43.70;101195.50;;;;-59
2019/12/25 15:31:57;;;;;;;1.65;1.39;;;;;;;20.62;43.98;101197.80;;;;-59
2019/12/25 15:34:57;;;;;;;1.93;1.31;;;;;;;20.63;44.16;101196.56;;;;-59
2019/12/25 15:37:57;;;;;;;2.29;1.33;;;;;;;20.63;43.73;101200.42;;;;-60
2019/12/25 15:40:57;;;;;;;2.60;1.35;;;;;;;20.63;43.60;101213.11;;;;-61
2019/12/25 15:43:57;;;;;;;1.35;1.22;;;;;;;20.63;43.53;101218.38;;;;-59
2019/12/25 15:46:57;;;;;;;2.08;1.23;;;;;;;20.63;43.47;101225.94;;;;-60
2019/12/25 15:49:57;;;;;;;1.40;1.30;;;;;;;20.63;43.42;101227.44;;;;-62
2019/12/25 15:52:57;;;;;;;3.51;1.39;;;;;;;20.63;43.75;101233.98;;;;-52
2019/12/25 15:55:57;;;;;;;5.54;1.40;;;;;;;20.63;43.93;101242.32;;;;-58
2019/12/25 15:58:57;;;;;;;2.26;1.37;;;;;;;20.65;44.03;101244.59;;;;-59
2019/12/25 16:01:57;;;;;;;2.84;1.26;;;;;;;20.65;44.13;101249.97;;;;-55
2019/12/25 16:04:57;;;;;;;2.65;1.30;;;;;;;20.66;44.25;101250.02;;;;-54
2019/12/25 16:07:57;;;;;;;1.45;1.19;;;;;;;20.66;44.22;101251.20;;;;-57
2019/12/25 16:10:57;;;;;;;3.50;1.25;;;;;;;20.67;44.28;101257.63;;;;-47
2019/12/25 16:13:57;;;;;;;1.84;1.31;;;;;;;20.67;44.28;101260.31;;;;-55
2019/12/25 16:16:57;;;;;;;1.32;1.22;;;;;;;20.69;44.41;101262.09;;;;-55
2019/12/25 16:19:58;;;;;;;3.01;1.53;;;;;;;20.65;43.60;101273.64;;;;-59
2019/12/25 16:22:57;;;;;;;5.37;1.60;;;;;;;20.66;42.63;101285.61;;;;-52
2019/12/25 16:25:57;;;;;;;9.43;1.85;;;;;;;20.70;43.79;101286.05;;;;-46
2019/12/25 16:28:57;;;;;;;3.37;1.46;;;;;;;20.74;44.35;101295.89;;;;-48
2019/12/25 16:31:57;;;;;;;7.99;2.07;;;;;;;20.69;43.57;101294.67;;;;-51
2019/12/25 16:34:57;;;;;;;7.48;1.83;;;;;;;20.67;42.91;101297.08;;;;-51
2019/12/25 16:37:57;;;;;;;6.83;2.02;;;;;;;20.69;43.41;101305.41;;;;-50
2019/12/25 16:40:57;;;;;;;4.01;1.67;;;;;;;20.72;43.43;101306.63;;;;-49
2019/12/25 16:43:57;;;;;;;5.43;1.70;;;;;;;20.73;43.50;101314.02;;;;-50